createdAt,value
2018-06-02T00:00:22.450Z,19.60
2018-06-02T00:02:51.384Z,19.60
2018-06-02T00:05:20.347Z,19.50
2018-06-02T00:07:49.289Z,19.50
2018-06-02T00:10:18.238Z,19.40
2018-06-02T00:12:47.181Z,19.40
2018-06-02T00:15:16.160Z,19.40
2018-06-02T00:17:45.221Z,19.40
2018-06-02T00:20:14.166Z,19.30
2018-06-02T00:22:43.091Z,19.30
2018-06-02T00:25:12.055Z,19.30
2018-06-02T00:27:40.998Z,19.20
2018-06-02T00:30:09.967Z,19.20
2018-06-02T00:32:38.930Z,19.20
2018-06-02T00:35:08.705Z,19.20
2018-06-02T00:37:37.700Z,19.20
2018-06-02T00:40:06.732Z,19.20
2018-06-02T00:42:36.496Z,19.10
2018-06-02T00:45:05.469Z,19.10
2018-06-02T00:47:34.542Z,19.10
2018-06-02T00:50:03.566Z,19.00
2018-06-02T00:52:32.479Z,19.00
2018-06-02T00:55:07.288Z,18.90
2018-06-02T00:57:36.220Z,18.90
2018-06-02T01:00:05.190Z,18.80
2018-06-02T01:02:34.137Z,18.80
2018-06-02T01:05:03.175Z,18.80
2018-06-02T01:07:32.219Z,18.80
2018-06-02T01:10:01.224Z,18.70
2018-06-02T01:12:30.202Z,18.70
2018-06-02T01:14:59.202Z,18.60
2018-06-02T01:17:28.145Z,18.60
2018-06-02T01:19:57.125Z,18.60
2018-06-02T01:22:26.088Z,18.50
2018-06-02T01:24:55.030Z,18.50
2018-06-02T01:27:24.019Z,18.50
2018-06-02T01:29:52.988Z,18.50
2018-06-02T01:32:21.958Z,18.50
2018-06-02T01:34:50.904Z,18.60
2018-06-02T01:37:19.908Z,18.50
2018-06-02T01:39:49.690Z,18.50
2018-06-02T01:42:18.726Z,18.50
2018-06-02T01:44:47.682Z,18.50
2018-06-02T01:47:16.662Z,18.40
2018-06-02T01:49:45.674Z,18.40
2018-06-02T01:52:14.631Z,18.30
2018-06-02T01:54:43.595Z,18.30
2018-06-02T01:57:12.591Z,18.30
2018-06-02T01:59:41.634Z,18.30
2018-06-02T02:02:10.610Z,18.30
2018-06-02T02:04:39.611Z,18.20
2018-06-02T02:07:08.565Z,18.30
2018-06-02T02:09:37.515Z,18.20
2018-06-02T02:12:07.311Z,18.20
2018-06-02T02:14:36.300Z,18.10
2018-06-02T02:17:05.267Z,18.10
2018-06-02T02:19:34.180Z,18.10
2018-06-02T02:22:03.112Z,18.10
2018-06-02T02:24:32.882Z,18.00
2018-06-02T02:27:01.888Z,18.00
2018-06-02T02:29:30.814Z,18.00
2018-06-02T02:32:00.575Z,18.00
2018-06-02T02:34:29.518Z,18.00
2018-06-02T02:36:58.466Z,18.00
2018-06-02T02:39:27.741Z,18.00
2018-06-02T02:41:56.664Z,18.00
2018-06-02T02:44:25.629Z,17.90
2018-06-02T02:46:54.608Z,17.90
2018-06-02T02:49:23.606Z,17.90
2018-06-02T02:51:52.633Z,17.80
2018-06-02T02:54:21.570Z,17.70
2018-06-02T02:56:50.524Z,17.70
2018-06-02T02:59:19.475Z,17.60
2018-06-02T03:01:48.465Z,17.60
2018-06-02T03:04:17.497Z,17.50
2018-06-02T03:06:46.471Z,17.40
2018-06-02T03:09:15.436Z,17.40
2018-06-02T03:11:44.364Z,17.30
2018-06-02T03:14:13.289Z,17.40
2018-06-02T03:16:43.075Z,17.20
2018-06-02T03:19:12.137Z,17.20
2018-06-02T03:21:41.057Z,17.20
2018-06-02T03:24:10.202Z,17.30
2018-06-02T03:26:39.161Z,17.30
2018-06-02T03:29:08.133Z,17.40
2018-06-02T03:31:37.076Z,17.40
2018-06-02T03:34:06.124Z,17.40
2018-06-02T03:36:35.111Z,17.50
2018-06-02T03:39:05.755Z,17.40
2018-06-02T03:41:34.770Z,17.40
2018-06-02T03:44:03.722Z,17.60
2018-06-02T03:46:32.667Z,17.80
2018-06-02T03:49:01.770Z,18.10
2018-06-02T03:51:30.718Z,18.30
2018-06-02T03:53:59.675Z,18.50
2018-06-02T03:56:28.595Z,18.60
2018-06-02T03:58:57.531Z,18.50
2018-06-02T04:01:26.522Z,18.50
2018-06-02T04:03:55.470Z,18.50
2018-06-02T04:06:24.409Z,18.60
2018-06-02T04:08:53.320Z,18.60
2018-06-02T04:11:22.208Z,18.70
2018-06-02T04:13:51.113Z,19.00
2018-06-02T04:16:20.085Z,19.00
2018-06-02T04:18:49.038Z,19.10
2018-06-02T04:21:18.785Z,19.30
2018-06-02T04:23:48.637Z,19.20
2018-06-02T04:26:17.580Z,19.20
2018-06-02T04:28:46.522Z,19.30
2018-06-02T04:31:15.456Z,19.20
2018-06-02T04:33:44.379Z,19.10
2018-06-02T04:36:13.275Z,19.10
2018-06-02T04:38:42.187Z,19.10
2018-06-02T04:41:11.169Z,19.10
2018-06-02T04:43:40.344Z,19.10
2018-06-02T04:46:09.314Z,19.10
2018-06-02T04:48:38.265Z,19.10
2018-06-02T04:51:07.188Z,19.10
2018-06-02T04:56:19.741Z,19.30
2018-06-02T04:58:48.723Z,19.30
2018-06-02T05:01:17.636Z,19.40
2018-06-02T05:03:46.532Z,19.40
2018-06-02T05:06:15.553Z,19.40
2018-06-02T05:08:44.481Z,19.50
2018-06-02T05:11:13.991Z,19.60
2018-06-02T05:13:42.900Z,19.60
2018-06-02T05:16:11.796Z,19.70
2018-06-02T05:18:40.745Z,19.80
2018-06-02T05:21:10.457Z,20.20
2018-06-02T05:23:39.429Z,20.10
2018-06-02T05:26:09.125Z,20.40
2018-06-02T05:28:38.172Z,20.40
2018-06-02T05:31:07.096Z,20.50
2018-06-02T05:33:36.036Z,20.70
2018-06-02T05:36:06.185Z,20.90
2018-06-02T05:38:35.168Z,21.10
2018-06-02T05:41:04.093Z,21.50
2018-06-02T05:43:33.069Z,22.10
2018-06-02T05:46:02.092Z,22.30
2018-06-02T05:48:31.829Z,22.50
2018-06-02T05:51:00.751Z,22.40
2018-06-02T05:53:29.709Z,22.60
2018-06-02T05:55:59.390Z,22.70
2018-06-02T05:58:28.312Z,22.70
2018-06-02T06:00:58.122Z,22.90
2018-06-02T06:03:27.836Z,23.20
2018-06-02T06:05:56.834Z,23.10
2018-06-02T06:08:25.791Z,24.10
2018-06-02T06:10:55.530Z,27.10
2018-06-02T06:13:24.515Z,26.90
2018-06-02T06:15:53.451Z,28.20
2018-06-02T06:18:22.487Z,29.30
2018-06-02T06:20:52.237Z,31.80
2018-06-02T06:23:21.239Z,31.70
2018-06-02T06:25:56.398Z,32.90
2018-06-02T06:28:25.306Z,33.80
2018-06-02T06:30:54.241Z,34.00
2018-06-02T06:33:23.295Z,34.80
2018-06-02T06:35:52.329Z,34.70
2018-06-02T06:38:21.225Z,33.50
2018-06-02T06:40:50.509Z,32.60
2018-06-02T06:43:19.473Z,31.40
2018-06-02T06:45:49.256Z,30.10
2018-06-02T06:48:18.246Z,30.10
2018-06-02T06:50:47.166Z,29.30
2018-06-02T06:53:16.166Z,29.20
2018-06-02T06:55:45.099Z,29.80
2018-06-02T06:58:14.050Z,31.30
2018-06-02T07:00:43.798Z,33.50
2018-06-02T07:03:12.778Z,33.40
2018-06-02T07:05:41.723Z,34.10
2018-06-02T07:08:10.674Z,34.70
2018-06-02T07:10:39.588Z,35.10
2018-06-02T07:13:08.550Z,35.80
2018-06-02T07:15:37.503Z,36.20
2018-06-02T07:18:06.356Z,36.80
2018-06-02T07:20:35.325Z,37.00
2018-06-02T07:23:04.269Z,37.20
2018-06-02T07:25:33.209Z,38.00
2018-06-02T07:28:02.138Z,37.90
2018-06-02T07:30:31.120Z,37.50
2018-06-02T07:33:00.056Z,37.80
2018-06-02T07:35:29.719Z,38.10
2018-06-02T07:37:58.626Z,38.00
2018-06-02T07:40:27.549Z,38.80
2018-06-02T07:42:57.176Z,38.70
2018-06-02T07:45:26.107Z,38.60
2018-06-02T07:47:55.004Z,38.70
2018-06-02T07:50:23.997Z,39.30
2018-06-02T07:52:52.898Z,40.20
2018-06-02T07:55:21.814Z,40.40
2018-06-02T07:57:51.489Z,39.30
2018-06-02T08:00:20.419Z,39.20
2018-06-02T08:02:49.327Z,38.50
2018-06-02T08:05:18.285Z,38.90
2018-06-02T08:07:48.004Z,39.50
2018-06-02T08:10:17.681Z,39.90
2018-06-02T08:12:46.573Z,39.70
2018-06-02T08:15:15.502Z,40.30
2018-06-02T08:17:45.163Z,39.50
2018-06-02T08:20:15.776Z,39.40
2018-06-02T08:22:44.676Z,38.40
2018-06-02T08:25:13.589Z,39.30
2018-06-02T08:27:42.555Z,39.10
2018-06-02T08:30:11.461Z,39.30
2018-06-02T08:32:40.386Z,40.10
2018-06-02T08:35:10.030Z,39.30
2018-06-02T08:37:38.940Z,39.30
2018-06-02T08:40:07.912Z,40.10
2018-06-02T08:42:36.849Z,39.60
2018-06-02T08:45:05.774Z,38.90
2018-06-02T08:47:34.680Z,38.80
2018-06-02T08:50:03.602Z,38.80
2018-06-02T08:52:32.537Z,37.50
2018-06-02T08:55:02.234Z,36.40
2018-06-02T08:57:31.902Z,36.10
2018-06-02T09:00:00.804Z,36.10
2018-06-02T09:02:29.802Z,35.90
2018-06-02T09:04:58.730Z,35.80
2018-06-02T09:07:29.640Z,35.70
2018-06-02T09:09:59.413Z,35.60
2018-06-02T09:12:28.379Z,35.60
2018-06-02T09:14:57.307Z,35.60
2018-06-02T09:17:26.213Z,36.20
2018-06-02T09:19:55.137Z,36.20
2018-06-02T09:22:25.185Z,36.00
2018-06-02T09:24:54.246Z,35.10
2018-06-02T09:27:24.132Z,33.20
2018-06-02T09:29:53.036Z,33.10
2018-06-02T09:32:21.957Z,32.10
2018-06-02T09:34:50.851Z,31.50
2018-06-02T09:37:19.756Z,31.00
2018-06-02T09:39:48.670Z,30.80
2018-06-02T09:42:17.606Z,30.50
2018-06-02T09:44:47.277Z,30.90
2018-06-02T09:47:16.252Z,30.80
2018-06-02T09:49:45.156Z,31.90
2018-06-02T09:52:14.668Z,32.70
2018-06-02T09:54:44.758Z,32.60
2018-06-02T09:57:13.687Z,32.60
2018-06-02T09:59:42.617Z,32.90
2018-06-02T10:02:11.547Z,32.70
2018-06-02T10:04:40.520Z,32.10
2018-06-02T10:07:09.406Z,30.80
2018-06-02T10:09:39.195Z,29.80
2018-06-02T10:15:02.827Z,28.80
2018-06-02T10:21:23.220Z,28.20
2018-06-02T10:23:59.262Z,28.40
2018-06-02T10:37:18.272Z,28.70
2018-06-02T10:39:47.992Z,28.00
2018-06-02T10:42:16.903Z,27.90
2018-06-02T10:44:45.798Z,27.90
2018-06-02T10:47:14.803Z,27.80
2018-06-02T10:49:43.717Z,27.70
2018-06-02T10:52:12.653Z,27.60
2018-06-02T10:54:42.443Z,27.30
2018-06-02T10:57:11.540Z,27.30
2018-06-02T10:59:40.492Z,27.30
2018-06-02T11:02:09.782Z,27.60
2018-06-02T11:04:38.802Z,27.80
2018-06-02T11:07:07.792Z,28.10
2018-06-02T11:12:36.468Z,28.00
2018-06-02T11:15:05.416Z,28.40
2018-06-02T11:17:35.107Z,29.30
2018-06-02T11:20:05.681Z,29.30
2018-06-02T11:22:34.662Z,29.70
2018-06-02T11:25:04.431Z,30.10
2018-06-02T11:27:33.352Z,30.10
2018-06-02T11:30:03.067Z,29.50
2018-06-02T11:32:32.030Z,29.50
2018-06-02T11:35:01.027Z,29.20
2018-06-02T11:37:29.950Z,28.90
2018-06-02T11:39:59.668Z,28.60
2018-06-02T11:42:28.594Z,28.60
2018-06-02T11:44:57.522Z,28.80
2018-06-02T11:47:26.440Z,29.30
2018-06-02T11:49:55.368Z,29.40
2018-06-02T11:52:24.279Z,29.30
2018-06-02T11:54:53.435Z,29.30
2018-06-02T11:57:23.158Z,29.50
2018-06-02T11:59:52.076Z,29.50
2018-06-02T12:02:21.020Z,29.40
2018-06-02T12:04:50.178Z,29.30
2018-06-02T12:07:19.112Z,29.20
2018-06-02T12:09:48.900Z,29.10
2018-06-02T12:12:18.638Z,28.70
2018-06-02T12:14:47.566Z,28.60
2018-06-02T12:17:16.506Z,28.40
2018-06-02T12:19:45.482Z,28.00
2018-06-02T12:22:15.193Z,27.70
2018-06-02T12:24:44.979Z,28.30
2018-06-02T12:27:14.090Z,28.20
2018-06-02T12:29:43.868Z,28.60
2018-06-02T12:32:12.955Z,28.50
2018-06-02T12:34:41.937Z,28.60
2018-06-02T12:37:10.920Z,28.80
2018-06-02T12:39:39.951Z,28.90
2018-06-02T12:42:09.015Z,28.80
2018-06-02T12:44:39.438Z,28.40
2018-06-02T12:47:08.634Z,28.00
2018-06-02T12:49:38.698Z,28.00
2018-06-02T12:55:09.443Z,27.40
2018-06-02T12:57:38.685Z,27.20
2018-06-02T13:00:08.787Z,26.50
2018-06-02T13:02:37.874Z,25.60
2018-06-02T13:05:08.176Z,25.00
2018-06-02T13:07:37.325Z,24.80
2018-06-02T13:10:07.196Z,24.60
2018-06-02T13:12:36.184Z,24.50
2018-06-02T13:15:05.197Z,24.40
2018-06-02T13:17:34.296Z,24.20
2018-06-02T13:20:04.300Z,24.00
2018-06-02T13:22:34.178Z,23.60
2018-06-02T13:25:04.080Z,23.10
2018-06-02T13:27:33.218Z,22.80
2018-06-02T13:30:02.315Z,22.60
2018-06-02T13:32:33.367Z,22.50
2018-06-02T13:35:02.391Z,22.60
2018-06-02T13:37:31.407Z,22.70
2018-06-02T13:40:00.734Z,22.90
2018-06-02T13:42:30.462Z,23.50
2018-06-02T13:45:00.213Z,23.70
2018-06-02T13:47:29.563Z,23.60
2018-06-02T13:49:59.353Z,23.80
2018-06-02T13:52:28.321Z,23.70
2018-06-02T13:54:57.271Z,23.90
2018-06-02T13:57:27.122Z,24.20
2018-06-02T13:59:56.012Z,24.10
2018-06-02T14:02:27.464Z,23.90
2018-06-02T14:04:57.503Z,23.90
2018-06-02T14:07:26.424Z,24.10
2018-06-02T14:09:56.962Z,24.00
2018-06-02T14:12:26.720Z,23.90
2018-06-02T14:14:55.656Z,23.80
2018-06-02T14:17:25.345Z,23.90
2018-06-02T14:19:54.447Z,23.90
2018-06-02T14:22:23.343Z,23.90
2018-06-02T14:24:52.271Z,23.90
2018-06-02T14:27:21.215Z,23.80
2018-06-02T14:29:51.017Z,23.80
2018-06-02T14:32:19.944Z,23.70
2018-06-02T14:34:48.945Z,23.70
2018-06-02T14:37:17.831Z,23.80
2018-06-02T14:39:47.523Z,23.80
2018-06-02T14:42:16.551Z,23.80
2018-06-02T14:44:45.439Z,24.00
2018-06-02T14:47:14.376Z,24.10
2018-06-02T14:49:43.304Z,24.20
2018-06-02T14:52:13.049Z,24.20
2018-06-02T14:54:42.015Z,24.20
2018-06-02T14:57:10.952Z,24.10
2018-06-02T14:59:40.010Z,23.90
2018-06-02T15:02:08.903Z,23.80
2018-06-02T15:04:37.882Z,23.80
2018-06-02T15:07:06.788Z,23.70
2018-06-02T15:09:35.718Z,23.80
2018-06-02T15:12:04.637Z,23.90
2018-06-02T15:14:33.547Z,23.80
2018-06-02T15:17:03.230Z,24.00
2018-06-02T15:19:32.191Z,24.00
2018-06-02T15:22:01.118Z,24.10
2018-06-02T15:24:30.030Z,24.20
2018-06-02T15:26:58.964Z,24.20
2018-06-02T15:29:27.898Z,24.20
2018-06-02T15:31:57.602Z,24.20
2018-06-02T15:34:26.589Z,24.20
2018-06-02T15:36:55.528Z,24.30
2018-06-02T15:39:24.483Z,24.20
2018-06-02T15:41:53.403Z,24.10
2018-06-02T15:44:22.322Z,24.20
2018-06-02T15:46:51.265Z,24.20
2018-06-02T15:49:20.958Z,24.30
2018-06-02T15:51:49.881Z,24.20
2018-06-02T15:54:18.769Z,24.30
2018-06-02T15:56:47.757Z,24.30
2018-06-02T15:59:16.668Z,24.20
2018-06-02T16:01:45.883Z,24.20
2018-06-02T16:04:14.769Z,24.20
2018-06-02T16:06:43.704Z,24.20
2018-06-02T16:09:12.728Z,24.10
2018-06-02T16:11:41.654Z,24.10
2018-06-02T16:14:10.535Z,24.10
2018-06-02T17:53:38.229Z,24.10
2018-06-02T17:56:07.151Z,22.70
2018-06-02T17:58:36.076Z,22.60
2018-06-02T18:01:04.972Z,22.60
2018-06-02T18:03:36.497Z,22.50
2018-06-02T18:06:05.754Z,22.50
2018-06-02T18:08:34.685Z,22.40
2018-06-02T18:11:04.069Z,22.40
2018-06-02T18:13:33.589Z,22.40
2018-06-02T18:16:02.495Z,22.40
2018-06-02T18:18:33.360Z,22.30
2018-06-02T18:21:02.253Z,22.30
2018-06-02T18:23:31.240Z,22.30
2018-06-02T18:26:00.163Z,22.30
2018-06-02T18:28:29.039Z,22.20
2018-06-02T18:30:57.919Z,22.10
2018-06-02T18:33:26.815Z,22.00
2018-06-02T18:35:55.692Z,22.00
2018-06-02T18:38:24.579Z,22.00
2018-06-02T18:40:53.503Z,22.10
2018-06-02T18:43:22.435Z,22.10
2018-06-02T18:45:51.323Z,22.10
2018-06-02T18:48:20.980Z,21.90
2018-06-02T18:50:49.908Z,21.80
2018-06-02T18:53:18.815Z,21.90
2018-06-02T18:55:48.575Z,21.70
2018-06-02T18:58:17.506Z,21.70
2018-06-02T19:00:46.404Z,21.70
2018-06-02T19:03:16.083Z,21.60
2018-06-02T19:05:44.990Z,21.60
2018-06-02T19:08:13.908Z,21.60
2018-06-02T19:10:42.842Z,21.50
2018-06-02T19:13:11.785Z,21.60
2018-06-02T19:15:41.505Z,21.50
2018-06-02T19:18:10.411Z,21.40
2018-06-02T19:20:39.283Z,21.40
2018-06-02T19:23:08.177Z,21.40
2018-06-02T19:25:37.067Z,21.30
2018-06-02T19:28:05.943Z,21.30
2018-06-02T19:30:35.608Z,21.00
2018-06-02T19:33:04.535Z,20.90
2018-06-02T19:35:34.241Z,20.90
2018-06-02T19:38:03.098Z,20.80
2018-06-02T19:40:32.044Z,20.90
2018-06-02T19:43:00.936Z,20.90
2018-06-02T19:45:29.864Z,20.80
2018-06-02T19:47:58.841Z,20.70
2018-06-02T19:50:27.786Z,20.60
2018-06-02T19:52:56.747Z,20.50
2018-06-02T19:55:25.721Z,20.50
2018-06-02T19:57:54.712Z,20.50
2018-06-02T20:00:23.675Z,20.50
2018-06-02T20:02:52.651Z,20.50
2018-06-02T20:05:21.552Z,20.50
2018-06-02T20:07:51.329Z,20.40
2018-06-02T20:10:20.258Z,20.30
2018-06-02T20:12:49.177Z,20.40
2018-06-02T20:15:18.066Z,20.40
2018-06-02T20:17:47.027Z,20.40
2018-06-02T20:20:15.967Z,20.30
2018-06-02T20:22:44.819Z,20.20
2018-06-02T20:25:13.724Z,20.20
2018-06-02T20:27:42.701Z,20.20
2018-06-02T20:30:11.638Z,20.20
2018-06-02T20:32:40.593Z,20.10
2018-06-02T20:35:09.495Z,20.00
2018-06-02T20:37:38.440Z,19.90
2018-06-02T20:40:08.172Z,19.90
2018-06-02T20:42:37.075Z,19.80
2018-06-02T20:45:05.980Z,19.90
2018-06-02T20:47:34.954Z,19.90
2018-06-02T22:06:14.889Z,19.90
2018-06-02T22:08:43.832Z,19.30
2018-06-02T22:11:12.759Z,19.30
2018-06-02T22:13:42.522Z,19.30
2018-06-02T22:16:11.444Z,19.20
2018-06-02T22:18:40.385Z,19.30
2018-06-02T22:21:09.298Z,19.20
2018-06-02T22:23:38.995Z,19.10
2018-06-02T22:26:07.968Z,19.10
2018-06-02T22:28:36.855Z,19.10
2018-06-02T22:31:05.752Z,19.10
2018-06-02T22:33:34.734Z,19.10
2018-06-02T22:36:03.647Z,19.10
2018-06-02T22:38:32.599Z,19.10
2018-06-02T22:41:01.477Z,19.10
2018-06-02T22:43:30.418Z,19.10
2018-06-02T22:45:59.327Z,19.00
2018-06-02T22:48:28.307Z,19.00
2018-06-02T22:50:57.231Z,19.00
2018-06-02T22:53:39.960Z,19.00
2018-06-02T22:56:09.061Z,19.00
2018-06-02T22:58:37.993Z,18.90
2018-06-02T23:01:06.965Z,19.00
2018-06-02T23:03:35.871Z,19.00
2018-06-02T23:06:04.815Z,19.00
2018-06-02T23:08:33.904Z,19.00
2018-06-02T23:11:02.847Z,18.90
2018-06-02T23:13:31.743Z,18.90
2018-06-02T23:16:00.720Z,18.90
2018-06-02T23:18:29.643Z,18.90
2018-06-02T23:20:58.543Z,18.90
2018-06-02T23:23:27.419Z,18.90
2018-06-02T23:25:56.319Z,18.80
2018-06-02T23:28:25.256Z,18.80
2018-06-02T23:30:54.928Z,18.80
2018-06-02T23:33:23.857Z,18.80
2018-06-02T23:35:53.503Z,18.80
2018-06-02T23:38:22.397Z,18.70
2018-06-02T23:40:51.367Z,18.80
2018-06-02T23:43:20.261Z,18.80
2018-06-02T23:45:49.179Z,18.80
2018-06-02T23:48:18.103Z,18.80
2018-06-02T23:50:47.048Z,18.70
2018-06-02T23:53:15.951Z,18.70
2018-06-02T23:55:44.901Z,18.70
2018-06-02T23:58:13.803Z,18.70
